Time;durP1;ratioP1;P1;durP2;ratioP2;P2;SDS_P1;SDS_P2;PMS_P1;PMS_P2;Temp;Humidity;BMP_temperature;BMP_pressure;BME280_temperature;BME280_humidity;BME280_pressure;Samples;Min_cycle;Max_cycle;Signal;HPM_P1;HPM_P2
2023/08/22 00:01:34;;;;;;;;;;;;;;;24.16;58.23;102065.38;5067475;28;19917;-48
2023/08/22 00:03:59;;;;;;;;;;;;;;;24.15;58.14;102069.97;5067422;28;19917;-46
2023/08/22 00:06:25;;;;;;;;;;;;;;;24.15;58.19;102074.56;5067222;28;19913;-49
2023/08/22 00:08:50;;;;;;;;;;;;;;;24.15;58.20;102060.97;5067205;28;19932;-50
2023/08/22 00:11:15;;;;;;;;;;;;;;;24.15;58.26;102072.69;5067740;28;20005;-48
2023/08/22 00:13:40;;;;;;;;;;;;;;;24.15;58.23;102061.81;5066793;28;19916;-47
2023/08/22 00:16:05;;;;;;;;;;;;;;;24.14;58.06;102057.41;5067497;28;19917;-49
2023/08/22 00:18:31;;;;;;;;;;;;;;;24.14;58.10;102054.69;5066660;28;19970;-49
2023/08/22 00:20:56;;;;;;;;;;;;;;;24.15;58.21;102044.66;5067453;28;20374;-48
2023/08/22 00:23:21;;;;;;;;;;;;;;;24.14;58.11;102048.41;5066604;28;19929;-44
2023/08/22 00:25:47;;;;;;;;;;;;;;;24.13;58.12;102055.72;5067564;28;19913;-49
2023/08/22 00:28:14;;;;;;;;;;;;;;;24.14;58.04;102056.56;5066854;28;19920;-45
2023/08/22 00:30:40;;;;;;;;;;;;;;;24.13;57.85;102041.31;5065734;28;19959;-45
2023/08/22 00:33:05;;;;;;;;;;;;;;;24.13;57.95;102042.13;5099145;28;19916;-49
2023/08/22 00:35:30;;;;;;;;;;;;;;;24.13;58.15;102046.72;5066691;28;20333;-48
2023/08/22 00:37:56;;;;;;;;;;;;;;;24.14;58.06;102040.25;5067047;28;19913;-46
2023/08/22 00:40:21;;;;;;;;;;;;;;;24.14;58.11;102040.25;5066603;28;19916;-44
2023/08/22 00:42:46;;;;;;;;;;;;;;;24.12;57.95;102037.72;5065423;28;19924;-44
2023/08/22 00:45:12;;;;;;;;;;;;;;;24.13;57.96;102038.59;5066552;28;19920;-49
2023/08/22 00:47:37;;;;;;;;;;;;;;;24.13;58.02;102052.16;5066575;28;19973;-46
2023/08/22 00:50:04;;;;;;;;;;;;;;;24.13;57.94;102044.00;5066262;28;19913;-44
2023/08/22 00:52:29;;;;;;;;;;;;;;;24.12;57.88;102040.44;5098714;28;20385;-43
2023/08/22 00:54:54;;;;;;;;;;;;;;;24.13;57.83;102038.59;5066706;28;19939;-46
2023/08/22 00:57:19;;;;;;;;;;;;;;;24.12;57.88;102042.28;5064517;28;19967;-47
2023/08/22 00:59:44;;;;;;;;;;;;;;;24.12;57.93;102036.88;5066352;28;19988;-46
2023/08/22 01:02:10;;;;;;;;;;;;;;;24.11;58.01;102038.72;5098543;28;19912;-45
2023/08/22 01:04:35;;;;;;;;;;;;;;;24.11;58.00;102036.03;5065756;28;19920;-44
2023/08/22 01:07:09;;;;;;;;;;;;;;;24.12;57.94;102039.59;5066650;28;19938;-45
2023/08/22 01:09:35;;;;;;;;;;;;;;;24.12;57.99;102031.44;5097902;28;19913;-44
2023/08/22 01:12:23;;;;;;;;;;;;;;;24.11;57.90;102024.31;5064921;28;20330;-45
2023/08/22 01:14:54;;;;;;;;;;;;;;;24.10;57.79;102022.63;5062641;28;19920;-46
2023/08/22 01:17:19;;;;;;;;;;;;;;;24.11;57.65;102025.16;5096904;28;19924;-47
2023/08/22 01:19:44;;;;;;;;;;;;;;;24.11;57.70;102021.59;5065836;28;19921;-46
2023/08/22 01:22:10;;;;;;;;;;;;;;;24.10;57.81;102028.06;5066295;28;19913;-43
2023/08/22 01:24:35;;;;;;;;;;;;;;;24.09;57.67;102032.66;5065644;28;19925;-45
2023/08/22 01:27:00;;;;;;;;;;;;;;;24.09;57.78;102038.09;5066319;28;19988;-46
2023/08/22 01:29:27;;;;;;;;;;;;;;;24.09;57.68;102045.38;5065828;28;19913;-43
2023/08/22 01:32:04;;;;;;;;;;;;;;;24.10;57.80;102033.50;5098294;28;20400;-44
2023/08/22 01:34:29;;;;;;;;;;;;;;;24.09;57.71;102026.38;5063813;28;19980;-45
2023/08/22 01:36:54;;;;;;;;;;;;;;;24.09;57.75;102021.78;5065918;28;19921;-43
2023/08/22 01:39:20;;;;;;;;;;;;;;;24.08;57.53;102014.63;5098029;28;19924;-46
2023/08/22 01:41:46;;;;;;;;;;;;;;;24.08;57.56;102011.91;5065991;28;19912;-45
2023/08/22 01:44:11;;;;;;;;;;;;;;;24.08;57.63;102013.78;5097731;28;20137;-46
2023/08/22 01:46:36;;;;;;;;;;;;;;;24.08;57.65;101992.03;5064800;28;20382;-44
2023/08/22 01:49:02;;;;;;;;;;;;;;;24.09;57.59;101996.47;5065187;28;19917;-44
2023/08/22 01:51:27;;;;;;;;;;;;;;;24.08;57.61;102006.47;5065995;28;19912;-45
2023/08/22 01:53:52;;;;;;;;;;;;;;;24.08;57.51;101997.47;5065315;28;19913;-45
2023/08/22 01:56:17;;;;;;;;;;;;;;;24.07;57.60;101993.06;5065307;28;19943;-45
2023/08/22 01:58:43;;;;;;;;;;;;;;;24.07;57.56;101993.91;5065200;28;19916;-43
2023/08/22 02:01:09;;;;;;;;;;;;;;;24.07;57.43;101987.66;5065788;28;19924;-45
2023/08/22 02:03:34;;;;;;;;;;;;;;;24.06;57.50;101989.53;5065012;28;19916;-44
2023/08/22 02:05:59;;;;;;;;;;;;;;;24.06;57.57;101992.22;5065113;28;19913;-45
2023/08/22 02:08:24;;;;;;;;;;;;;;;24.06;57.39;101983.25;5065779;28;20423;-44
2023/08/22 02:10:49;;;;;;;;;;;;;;;24.06;57.42;101985.97;5065171;28;19928;-44
2023/08/22 02:13:14;;;;;;;;;;;;;;;24.06;57.36;101988.69;5065180;28;19996;-44
2023/08/22 02:15:40;;;;;;;;;;;;;;;24.06;57.50;101994.09;5064731;28;19981;-44
2023/08/22 02:18:05;;;;;;;;;;;;;;;24.05;57.36;101985.13;5065077;28;19944;-48
2023/08/22 02:20:31;;;;;;;;;;;;;;;24.04;57.42;101991.56;5064907;28;19913;-45
2023/08/22 02:22:56;;;;;;;;;;;;;;;24.04;57.28;101991.56;5064561;28;19921;-44
2023/08/22 02:25:21;;;;;;;;;;;;;;;24.04;57.51;101993.44;5064646;28;19927;-44
2023/08/22 02:27:46;;;;;;;;;;;;;;;24.05;57.32;101987.00;5065130;28;19917;-44
2023/08/22 02:30:12;;;;;;;;;;;;;;;24.04;57.24;101988.84;5064436;28;19920;-44
2023/08/22 02:32:37;;;;;;;;;;;;;;;24.03;57.20;101984.44;5064665;28;19916;-43
2023/08/22 02:35:03;;;;;;;;;;;;;;;24.03;57.25;101995.28;5064183;28;19978;-44
2023/08/22 02:37:28;;;;;;;;;;;;;;;24.03;57.34;101984.44;5064981;28;19919;-47
2023/08/22 02:39:55;;;;;;;;;;;;;;;24.03;57.17;101984.44;5061350;28;19988;-45
2023/08/22 02:42:20;;;;;;;;;;;;;;;24.03;57.19;101989.03;5064965;28;19920;-44
2023/08/22 02:44:46;;;;;;;;;;;;;;;24.02;57.24;101981.91;5064526;28;20309;-45
2023/08/22 02:47:11;;;;;;;;;;;;;;;24.01;57.21;101994.66;5064590;28;19939;-44
2023/08/22 02:49:36;;;;;;;;;;;;;;;24.01;57.21;101978.34;5063566;28;19924;-44
2023/08/22 02:52:02;;;;;;;;;;;;;;;24.01;57.30;101981.06;5064662;28;19924;-44
2023/08/22 02:54:27;;;;;;;;;;;;;;;24.00;57.00;101968.50;5064270;28;19913;-45
2023/08/22 02:56:52;;;;;;;;;;;;;;;24.00;57.22;101968.50;5064328;28;19919;-45
2023/08/22 02:59:20;;;;;;;;;;;;;;;24.01;57.06;101977.50;5063698;28;19917;-47
2023/08/22 03:01:45;;;;;;;;;;;;;;;24.00;57.22;101970.34;5064533;28;19944;-46
2023/08/22 03:04:10;;;;;;;;;;;;;;;24.00;57.25;101967.63;5062992;28;19920;-46
2023/08/22 03:06:35;;;;;;;;;;;;;;;23.99;57.20;101965.94;5064134;28;19917;-44
2023/08/22 03:09:03;;;;;;;;;;;;;;;23.99;56.98;101963.22;5064142;28;19913;-43
2023/08/22 03:11:28;;;;;;;;;;;;;;;23.98;56.99;101967.81;5064303;28;19913;-42
2023/08/22 03:13:53;;;;;;;;;;;;;;;23.98;57.10;101964.25;5063907;28;19980;-44
2023/08/22 03:16:18;;;;;;;;;;;;;;;23.98;57.24;101962.38;5064202;28;19917;-43
2023/08/22 03:18:43;;;;;;;;;;;;;;;23.97;56.96;101962.56;5063029;28;19937;-44
2023/08/22 03:21:09;;;;;;;;;;;;;;;23.97;56.98;101962.56;5064608;28;19913;-45
2023/08/22 03:23:34;;;;;;;;;;;;;;;23.96;56.90;101961.72;5063884;28;19921;-42
2023/08/22 03:26:00;;;;;;;;;;;;;;;23.95;57.09;101957.31;5064096;28;19912;-45
2023/08/22 03:28:25;;;;;;;;;;;;;;;23.94;56.82;101964.59;5063582;28;19939;-45
2023/08/22 03:30:57;;;;;;;;;;;;;;;23.94;56.87;101961.88;5063690;28;20648;-48
2023/08/22 03:33:23;;;;;;;;;;;;;;;23.95;57.09;101968.16;5062542;28;20439;-45
2023/08/22 03:35:49;;;;;;;;;;;;;;;23.93;56.97;101968.34;5062795;28;19924;-43
2023/08/22 03:38:14;;;;;;;;;;;;;;;23.95;56.93;101968.16;5063671;28;19913;-44
2023/08/22 03:40:39;;;;;;;;;;;;;;;23.92;56.83;101966.66;5063781;28;19924;-43
2023/08/22 03:43:04;;;;;;;;;;;;;;;23.92;56.88;101966.66;5064011;28;19917;-44
2023/08/22 03:45:29;;;;;;;;;;;;;;;23.92;56.77;101957.69;5063665;28;19969;-44
2023/08/22 03:47:55;;;;;;;;;;;;;;;23.92;56.88;101963.94;5063307;28;19917;-43
2023/08/22 03:50:20;;;;;;;;;;;;;;;23.90;56.51;101957.84;5063291;28;19908;-45
2023/08/22 03:52:45;;;;;;;;;;;;;;;23.90;56.72;101949.69;5063728;28;19958;-45
2023/08/22 03:55:10;;;;;;;;;;;;;;;23.91;56.71;101954.09;5063128;28;20021;-42
2023/08/22 03:57:35;;;;;;;;;;;;;;;23.90;56.83;101951.56;5063346;28;20407;-43
2023/08/22 04:00:01;;;;;;;;;;;;;;;23.90;56.75;101957.00;5063284;28;19982;-43
2023/08/22 04:02:26;;;;;;;;;;;;;;;23.89;56.71;101956.16;5059671;28;20546;-47
2023/08/22 04:04:51;;;;;;;;;;;;;;;23.89;56.55;101958.88;5062105;28;19916;-42
2023/08/22 04:07:16;;;;;;;;;;;;;;;23.89;56.63;101955.31;5062978;28;19924;-44
2023/08/22 04:09:41;;;;;;;;;;;;;;;23.88;56.69;101959.06;5059337;28;19925;-43
2023/08/22 04:12:07;;;;;;;;;;;;;;;23.87;56.80;101955.50;5063683;28;19919;-46
2023/08/22 04:14:32;;;;;;;;;;;;;;;23.89;56.88;101960.72;5063210;28;19913;-44
2023/08/22 04:16:57;;;;;;;;;;;;;;;23.88;56.81;101957.19;5063144;28;19920;-43
2023/08/22 04:19:24;;;;;;;;;;;;;;;23.88;57.07;101959.06;5059203;28;19979;-43
2023/08/22 04:21:50;;;;;;;;;;;;;;;23.89;57.26;101958.03;5062747;28;19920;-43
2023/08/22 04:24:15;;;;;;;;;;;;;;;23.88;57.25;101950.91;5061305;28;19921;-43
2023/08/22 04:26:40;;;;;;;;;;;;;;;23.88;57.29;101954.47;5061323;28;20551;-44
2023/08/22 04:29:05;;;;;;;;;;;;;;;23.88;57.24;101950.91;5062887;28;20283;-48
2023/08/22 04:31:32;;;;;;;;;;;;;;;23.88;57.36;101949.03;5063072;28;20224;-47
2023/08/22 04:33:57;;;;;;;;;;;;;;;23.87;57.26;101949.19;5062702;28;19913;-48
2023/08/22 04:36:22;;;;;;;;;;;;;;;23.87;57.56;101947.34;5062644;28;19928;-46
2023/08/22 04:38:49;;;;;;;;;;;;;;;23.87;57.49;101950.06;5063066;28;19923;-46
2023/08/22 04:41:14;;;;;;;;;;;;;;;23.87;57.42;101947.34;5063320;28;20373;-48
2023/08/22 04:43:39;;;;;;;;;;;;;;;23.87;57.68;101949.19;5062394;28;20000;-48
2023/08/22 04:46:05;;;;;;;;;;;;;;;23.88;57.64;101945.47;5063633;28;19921;-46
2023/08/22 04:48:30;;;;;;;;;;;;;;;23.87;57.69;101957.34;5066204;28;19913;-47
2023/08/22 04:50:55;;;;;;;;;;;;;;;23.87;57.91;101955.50;5066644;28;19920;-49
2023/08/22 04:53:20;;;;;;;;;;;;;;;23.88;57.81;101956.34;5098688;28;19948;-48
2023/08/22 04:55:46;;;;;;;;;;;;;;;23.87;57.82;101949.19;5066267;28;19917;-46
2023/08/22 04:58:11;;;;;;;;;;;;;;;23.87;57.80;101952.78;5066693;28;19923;-44
2023/08/22 05:00:36;;;;;;;;;;;;;;;23.87;57.77;101960.91;5063736;28;19924;-48
2023/08/22 05:03:02;;;;;;;;;;;;;;;23.87;57.80;101952.78;5065798;28;19917;-45
2023/08/22 05:05:27;;;;;;;;;;;;;;;23.87;57.88;101957.34;5065445;28;19984;-47
2023/08/22 05:07:52;;;;;;;;;;;;;;;23.87;57.95;101955.50;5055406;28;19917;-45
2023/08/22 05:10:17;;;;;;;;;;;;;;;23.87;58.04;101960.91;5065933;28;20007;-45
2023/08/22 05:12:42;;;;;;;;;;;;;;;23.87;58.09;101960.03;5065691;28;19920;-45
2023/08/22 05:15:08;;;;;;;;;;;;;;;23.86;58.05;101970.06;5066138;28;20285;-49
2023/08/22 05:17:33;;;;;;;;;;;;;;;23.86;57.98;101961.91;5066756;28;19913;-47
2023/08/22 05:19:58;;;;;;;;;;;;;;;23.87;57.90;101962.75;5065815;28;20023;-48
2023/08/22 05:22:23;;;;;;;;;;;;;;;23.86;57.95;101964.63;5066153;28;19995;-49
2023/08/22 05:24:49;;;;;;;;;;;;;;;23.86;57.99;101964.63;5065979;28;20279;-43
2023/08/22 05:27:14;;;;;;;;;;;;;;;23.86;57.89;101970.06;5066420;28;19920;-50
2023/08/22 05:29:39;;;;;;;;;;;;;;;23.86;57.89;101961.09;5065223;28;19977;-47
2023/08/22 05:32:04;;;;;;;;;;;;;;;23.85;57.87;101976.53;5066282;28;20054;-50
2023/08/22 05:34:30;;;;;;;;;;;;;;;23.86;57.99;101974.66;5065155;28;20007;-48
2023/08/22 05:36:55;;;;;;;;;;;;;;;23.86;57.83;101971.94;5066109;28;19920;-49
2023/08/22 05:39:20;;;;;;;;;;;;;;;23.85;57.96;101971.09;5065167;28;19912;-48
2023/08/22 05:41:45;;;;;;;;;;;;;;;23.86;57.61;101964.63;5065847;28;19931;-46
2023/08/22 05:44:10;;;;;;;;;;;;;;;23.85;58.00;101962.94;5065585;28;19920;-42
2023/08/22 05:46:36;;;;;;;;;;;;;;;23.85;57.94;101959.41;5066440;28;19923;-47
2023/08/22 05:49:01;;;;;;;;;;;;;;;23.85;57.95;101957.53;5064771;28;19984;-46
2023/08/22 05:51:26;;;;;;;;;;;;;;;23.85;57.84;101972.97;5066262;28;19917;-46
2023/08/22 05:53:51;;;;;;;;;;;;;;;23.85;57.77;101975.69;5065787;28;19959;-48
2023/08/22 05:56:16;;;;;;;;;;;;;;;23.85;57.91;101973.81;5065837;28;19963;-45
2023/08/22 05:58:42;;;;;;;;;;;;;;;23.85;57.91;101975.69;5064403;28;19920;-46
2023/08/22 06:01:10;;;;;;;;;;;;;;;23.84;57.77;101963.97;5065822;28;19919;-45
2023/08/22 06:03:36;;;;;;;;;;;;;;;23.84;57.59;101974.84;5061803;28;19939;-48
2023/08/22 06:06:01;;;;;;;;;;;;;;;23.85;57.76;101973.81;5065084;28;19921;-44
2023/08/22 06:08:26;;;;;;;;;;;;;;;23.84;57.56;101974.84;5065336;28;19913;-49
2023/08/22 06:10:51;;;;;;;;;;;;;;;23.85;57.84;101972.97;5065245;28;19917;-44
2023/08/22 06:13:17;;;;;;;;;;;;;;;23.83;57.70;101978.59;5064962;28;19916;-44
2023/08/22 06:15:42;;;;;;;;;;;;;;;23.84;57.65;101983.00;5065532;28;19932;-46
2023/08/22 06:18:07;;;;;;;;;;;;;;;23.83;57.54;101975.88;5064533;28;19913;-45
2023/08/22 06:20:36;;;;;;;;;;;;;;;23.84;57.57;101972.13;5065211;28;19916;-45
2023/08/22 06:23:02;;;;;;;;;;;;;;;23.83;57.45;101975.00;5064073;28;20066;-47
2023/08/22 06:25:27;;;;;;;;;;;;;;;23.83;57.53;101969.56;5065097;28;19917;-47
2023/08/22 06:27:52;;;;;;;;;;;;;;;23.83;57.45;101975.88;5064902;28;19917;-45
2023/08/22 06:30:17;;;;;;;;;;;;;;;23.83;57.51;101967.72;5064421;28;19917;-46
2023/08/22 06:32:43;;;;;;;;;;;;;;;23.83;57.29;101972.28;5064445;28;19916;-46
2023/08/22 06:35:08;;;;;;;;;;;;;;;23.82;57.52;101971.44;5061957;28;19917;-45
2023/08/22 06:37:33;;;;;;;;;;;;;;;23.83;57.38;101975.00;5065175;28;19920;-44
2023/08/22 06:39:58;;;;;;;;;;;;;;;23.81;57.58;101972.47;5064085;28;19913;-47
2023/08/22 06:42:24;;;;;;;;;;;;;;;23.82;57.28;101967.88;5064444;28;19920;-49
2023/08/22 06:44:49;;;;;;;;;;;;;;;23.82;57.25;101976.03;5062241;28;19912;-47
2023/08/22 06:47:14;;;;;;;;;;;;;;;23.81;57.24;101969.75;5065898;28;19917;-44
2023/08/22 06:49:39;;;;;;;;;;;;;;;23.82;57.42;101967.88;5063666;28;19919;-46
2023/08/22 06:52:04;;;;;;;;;;;;;;;23.81;57.35;101972.47;5065112;28;20003;-50
2023/08/22 06:54:32;;;;;;;;;;;;;;;23.81;57.25;101972.47;5064217;28;20020;-48
2023/08/22 06:56:57;;;;;;;;;;;;;;;23.80;57.36;101968.06;5067094;28;19916;-44
2023/08/22 06:59:22;;;;;;;;;;;;;;;23.81;57.40;101966.19;5063828;28;20572;-46
2023/08/22 07:01:47;;;;;;;;;;;;;;;23.80;57.10;101970.78;5065820;28;19917;-47
2023/08/22 07:04:13;;;;;;;;;;;;;;;23.80;57.49;101970.78;5062469;28;20317;-44
2023/08/22 07:06:38;;;;;;;;;;;;;;;23.80;57.28;101978.09;5064394;28;19912;-45
2023/08/22 07:09:03;;;;;;;;;;;;;;;23.80;57.22;101984.38;5063597;28;19935;-44
2023/08/22 07:11:28;;;;;;;;;;;;;;;23.79;57.36;101979.97;5064265;28;19980;-46
2023/08/22 07:13:53;;;;;;;;;;;;;;;23.79;57.22;101977.25;5064168;28;20003;-45
2023/08/22 07:16:19;;;;;;;;;;;;;;;23.79;57.42;101985.41;5064002;28;20012;-45
2023/08/22 07:18:44;;;;;;;;;;;;;;;23.79;57.41;101976.38;5063439;28;19975;-45
2023/08/22 07:21:09;;;;;;;;;;;;;;;23.78;57.51;101972.81;5064009;28;19920;-44
2023/08/22 07:23:34;;;;;;;;;;;;;;;23.78;57.37;101971.97;5063482;28;20448;-43
2023/08/22 07:26:01;;;;;;;;;;;;;;;23.78;57.29;101971.97;5064228;28;19920;-44
2023/08/22 07:28:26;;;;;;;;;;;;;;;23.78;57.39;101972.81;5061085;28;19921;-45
2023/08/22 07:30:53;;;;;;;;;;;;;;;23.77;57.50;101968.41;5062064;28;19920;-48
2023/08/22 07:33:18;;;;;;;;;;;;;;;23.77;57.40;101971.13;5063015;28;19963;-44
2023/08/22 07:35:44;;;;;;;;;;;;;;;23.76;57.56;101972.16;5096001;28;19917;-47
2023/08/22 07:38:09;;;;;;;;;;;;;;;23.77;57.64;101978.44;5064083;28;19912;-47
2023/08/22 07:40:38;;;;;;;;;;;;;;;23.77;57.40;101978.44;5064082;28;19919;-46
2023/08/22 07:43:03;;;;;;;;;;;;;;;23.77;57.39;101981.16;5063678;28;20017;-43
2023/08/22 07:45:28;;;;;;;;;;;;;;;23.76;57.32;101983.03;5063766;28;19916;-44
2023/08/22 07:47:54;;;;;;;;;;;;;;;23.77;57.50;101978.44;5063877;28;20385;-44
2023/08/22 07:50:19;;;;;;;;;;;;;;;23.75;57.32;101986.75;5063537;28;19975;-47
2023/08/22 07:52:44;;;;;;;;;;;;;;;23.76;57.37;101987.59;5063670;28;19948;-44
2023/08/22 07:55:10;;;;;;;;;;;;;;;23.76;57.59;101995.75;5063706;28;20042;-45
2023/08/22 07:57:35;;;;;;;;;;;;;;;23.75;57.42;101999.50;5064134;28;19919;-44
2023/08/22 08:00:00;;;;;;;;;;;;;;;23.75;57.45;101997.63;5063191;28;19944;-45
2023/08/22 08:02:26;;;;;;;;;;;;;;;23.74;57.43;102000.50;5063741;28;19956;-45
2023/08/22 08:04:51;;;;;;;;;;;;;;;23.74;57.52;102009.50;5062550;28;19959;-48
2023/08/22 08:07:16;;;;;;;;;;;;;;;23.73;57.37;102004.25;5064076;28;20031;-44
2023/08/22 08:09:41;;;;;;;;;;;;;;;23.73;57.40;102005.09;5063434;28;19921;-46
2023/08/22 08:12:06;;;;;;;;;;;;;;;23.73;57.41;102004.25;5063544;28;19948;-44
2023/08/22 08:14:32;;;;;;;;;;;;;;;23.73;57.40;102006.97;5063411;28;19944;-45
2023/08/22 08:16:57;;;;;;;;;;;;;;;23.73;57.53;102012.38;5063644;28;19916;-46
2023/08/22 08:19:22;;;;;;;;;;;;;;;23.72;57.40;102013.41;5063036;28;19978;-44
2023/08/22 08:21:48;;;;;;;;;;;;;;;23.72;57.35;102013.41;5065736;28;19978;-43
2023/08/22 08:24:14;;;;;;;;;;;;;;;23.71;57.31;102007.16;5067069;28;19925;-47
2023/08/22 08:26:39;;;;;;;;;;;;;;;23.72;57.23;102008.00;5067738;28;19917;-45
2023/08/22 08:29:05;;;;;;;;;;;;;;;23.72;57.49;102018.84;5066799;28;19962;-47
2023/08/22 08:31:30;;;;;;;;;;;;;;;23.71;57.41;102023.44;5067196;28;19913;-45
2023/08/22 08:33:55;;;;;;;;;;;;;;;23.71;57.29;102023.44;5066453;28;19912;-45
2023/08/22 08:36:20;;;;;;;;;;;;;;;23.71;57.37;102019.88;5066856;28;20390;-45
2023/08/22 08:38:45;;;;;;;;;;;;;;;23.71;57.11;102028.03;5067012;28;19947;-44
2023/08/22 08:41:11;;;;;;;;;;;;;;;23.70;57.06;102021.72;5066950;28;19924;-43
2023/08/22 08:43:36;;;;;;;;;;;;;;;23.70;57.29;102024.44;5099470;28;19912;-45
2023/08/22 08:46:01;;;;;;;;;;;;;;;23.71;57.14;102030.75;5062822;28;19924;-44
2023/08/22 08:48:27;;;;;;;;;;;;;;;23.69;57.16;102026.31;5098867;28;19963;-45
2023/08/22 08:50:52;;;;;;;;;;;;;;;23.70;57.18;102019.00;5066873;28;19917;-44
2023/08/22 08:53:17;;;;;;;;;;;;;;;23.69;57.22;102018.16;5099273;28;19964;-46
2023/08/22 08:55:43;;;;;;;;;;;;;;;23.70;57.19;102019.00;5066600;28;19920;-44
2023/08/22 08:58:08;;;;;;;;;;;;;;;23.68;57.26;102021.06;5099343;28;19913;-45
2023/08/22 09:00:34;;;;;;;;;;;;;;;23.68;57.05;102024.63;5066446;28;19925;-43
2023/08/22 09:02:59;;;;;;;;;;;;;;;23.69;57.21;102020.03;5065530;28;19917;-43
2023/08/22 09:05:24;;;;;;;;;;;;;;;23.68;57.19;102021.91;5065546;28;19913;-43
2023/08/22 09:07:49;;;;;;;;;;;;;;;23.69;57.28;102031.72;5065632;28;19951;-46
2023/08/22 09:10:30;;;;;;;;;;;;;;;23.68;56.94;102016.47;5098450;28;20027;-44
2023/08/22 09:12:57;;;;;;;;;;;;;;;23.69;56.95;102020.03;5072583;28;19919;-44
2023/08/22 09:15:22;;;;;;;;;;;;;;;23.68;57.24;102008.31;5098650;28;19925;-43
2023/08/22 09:17:47;;;;;;;;;;;;;;;23.68;57.12;102016.47;5066354;28;19966;-46
2023/08/22 09:20:12;;;;;;;;;;;;;;;23.68;57.03;102012.91;5065778;28;19916;-43
2023/08/22 09:22:38;;;;;;;;;;;;;;;23.68;56.88;102012.91;5066427;28;19913;-46
2023/08/22 09:25:07;;;;;;;;;;;;;;;23.67;57.18;102022.94;5066300;28;19995;-44
2023/08/22 09:27:32;;;;;;;;;;;;;;;23.68;56.89;102023.78;5066298;28;19912;-43
2023/08/22 09:30:04;;;;;;;;;;;;;;;23.68;57.05;102026.50;5096673;28;19917;-45
2023/08/22 09:32:29;;;;;;;;;;;;;;;23.68;56.99;102023.78;5097278;28;19977;-43
2023/08/22 09:34:55;;;;;;;;;;;;;;;23.69;57.14;102023.59;5065331;28;19913;-43
2023/08/22 09:37:36;;;;;;;;;;;;;;;23.68;57.05;102021.91;5066451;28;19967;-43
2023/08/22 09:40:05;;;;;;;;;;;;;;;23.67;57.03;102017.50;5065659;28;19913;-46
2023/08/22 09:42:30;;;;;;;;;;;;;;;23.68;56.78;102026.50;5065997;28;19917;-48
2023/08/22 09:44:56;;;;;;;;;;;;;;;23.67;56.94;102025.66;5065897;28;19920;-43
2023/08/22 09:47:23;;;;;;;;;;;;;;;23.67;56.87;102020.22;5065900;28;19916;-46
2023/08/22 09:49:48;;;;;;;;;;;;;;;23.68;57.08;102012.91;5065094;28;19917;-42
2023/08/22 09:52:14;;;;;;;;;;;;;;;23.68;56.90;102016.47;5065920;28;19938;-43
2023/08/22 09:54:41;;;;;;;;;;;;;;;23.69;56.99;102011.88;5064447;28;19913;-45
2023/08/22 09:57:06;;;;;;;;;;;;;;;23.68;57.26;102012.91;5065624;28;19997;-43
2023/08/22 09:59:31;;;;;;;;;;;;;;;23.67;56.95;102006.63;5096113;28;19921;-45
2023/08/22 10:01:56;;;;;;;;;;;;;;;23.67;57.05;102006.63;5065398;28;19916;-43
2023/08/22 10:04:21;;;;;;;;;;;;;;;23.67;57.06;102014.78;5094197;28;20290;-42
2023/08/22 10:06:47;;;;;;;;;;;;;;;23.67;57.13;102020.22;5065464;28;20282;-44
2023/08/22 10:09:12;;;;;;;;;;;;;;;23.67;57.32;102017.50;5065444;28;19917;-46
2023/08/22 10:11:40;;;;;;;;;;;;;;;23.68;57.24;102019.19;5098162;28;19919;-43
2023/08/22 10:14:05;;;;;;;;;;;;;;;23.68;57.13;102012.91;5064458;28;19936;-47
2023/08/22 10:16:30;;;;;;;;;;;;;;;23.68;57.08;102007.47;5097970;28;19921;-48
2023/08/22 10:19:02;;;;;;;;;;;;;;;23.67;57.20;102009.34;5065142;28;19924;-46
2023/08/22 10:21:45;;;;;;;;;;;;;;;23.68;57.33;102018.34;5064795;28;19935;-48
2023/08/22 10:24:23;;;;;;;;;;;;;;;23.68;57.18;102021.06;5063830;28;19921;-47
2023/08/22 10:26:58;;;;;;;;;;;;;;;23.68;57.18;102029.19;5063422;28;19924;-48
2023/08/22 10:29:24;;;;;;;;;;;;;;;23.70;57.17;102024.44;5063762;28;19916;-49
2023/08/22 10:32:01;;;;;;;;;;;;;;;23.68;57.40;102019.19;5064539;28;19919;-48
2023/08/22 10:34:46;;;;;;;;;;;;;;;23.70;57.29;102021.72;5063741;28;19940;-48
2023/08/22 10:37:11;;;;;;;;;;;;;;;23.67;57.27;102005.78;5063490;28;19917;-48
2023/08/22 10:39:40;;;;;;;;;;;;;;;23.68;57.23;102013.75;5064424;28;20404;-45
2023/08/22 10:42:06;;;;;;;;;;;;;;;23.69;57.32;102022.75;5064980;28;20000;-44
2023/08/22 10:44:32;;;;;;;;;;;;;;;23.69;57.30;102022.75;5061910;28;19936;-48
2023/08/22 10:47:06;;;;;;;;;;;;;;;23.68;57.27;102027.34;5065072;28;19913;-47
2023/08/22 10:49:38;;;;;;;;;;;;;;;23.68;57.24;102030.03;5063904;28;20332;-48
2023/08/22 10:52:07;;;;;;;;;;;;;;;23.67;57.49;102016.66;5064675;28;19917;-47
2023/08/22 10:54:33;;;;;;;;;;;;;;;23.68;57.39;102018.34;5062977;28;19927;-43
2023/08/22 10:57:17;;;;;;;;;;;;;;;23.69;57.37;102023.59;5064645;28;20321;-45
2023/08/22 11:00:14;;;;;;;;;;;;;;;23.67;57.33;102022.94;5063859;28;19917;-45
2023/08/22 11:02:42;;;;;;;;;;;;;;;23.68;57.34;102030.03;5063701;28;19913;-46
2023/08/22 11:05:11;;;;;;;;;;;;;;;23.68;57.51;102012.91;5063275;28;20435;-43
2023/08/22 11:07:40;;;;;;;;;;;;;;;23.69;57.60;102020.03;5096083;28;19960;-46
2023/08/22 11:10:07;;;;;;;;;;;;;;;23.68;57.31;102018.34;5064272;28;19913;-45
2023/08/22 11:12:32;;;;;;;;;;;;;;;23.67;57.47;102028.38;5064626;28;19917;-43
2023/08/22 11:15:00;;;;;;;;;;;;;;;23.68;57.61;102035.47;5064117;28;19966;-48
2023/08/22 11:17:25;;;;;;;;;;;;;;;23.68;57.39;102019.19;5096413;28;19913;-45
2023/08/22 11:19:54;;;;;;;;;;;;;;;23.68;57.37;102016.47;5063676;28;19912;-44
2023/08/22 11:22:19;;;;;;;;;;;;;;;23.68;57.44;102018.34;5063999;28;20360;-42
2023/08/22 11:24:45;;;;;;;;;;;;;;;23.68;57.40;102019.19;5062671;28;20398;-43
2023/08/22 11:27:11;;;;;;;;;;;;;;;23.69;57.43;102020.88;5062955;28;20328;-43
2023/08/22 11:29:43;;;;;;;;;;;;;;;23.69;57.42;102015.44;5063490;28;19917;-42
2023/08/22 11:32:18;;;;;;;;;;;;;;;23.69;57.27;102009.16;5064276;28;19919;-42
2023/08/22 11:34:43;;;;;;;;;;;;;;;23.68;57.42;102010.19;5062584;28;19916;-45
2023/08/22 11:37:08;;;;;;;;;;;;;;;23.68;57.34;102011.03;5063817;28;19917;-44
2023/08/22 11:39:34;;;;;;;;;;;;;;;23.68;57.36;101994.75;5063534;28;19916;-43
2023/08/22 11:41:59;;;;;;;;;;;;;;;23.68;57.33;101992.03;5064181;28;20393;-44
2023/08/22 11:44:24;;;;;;;;;;;;;;;23.69;57.41;102026.31;5063822;28;19913;-44
2023/08/22 11:46:49;;;;;;;;;;;;;;;23.70;57.29;102010.84;5063969;28;19939;-46
2023/08/22 11:49:14;;;;;;;;;;;;;;;23.70;57.39;102019.00;5062969;28;19913;-45
2023/08/22 11:51:40;;;;;;;;;;;;;;;23.68;57.42;102019.19;5063720;28;19913;-46
2023/08/22 11:54:05;;;;;;;;;;;;;;;23.71;57.45;102017.16;5095659;28;19919;-43
2023/08/22 11:56:30;;;;;;;;;;;;;;;23.70;57.62;102013.56;5062806;28;19921;-45
2023/08/22 11:58:55;;;;;;;;;;;;;;;23.71;57.46;102007.16;5063111;28;19927;-48
2023/08/22 12:01:21;;;;;;;;;;;;;;;23.71;57.61;102020.72;5063642;28;19980;-43
2023/08/22 12:03:47;;;;;;;;;;;;;;;23.71;57.29;102019.88;5063111;28;19912;-48
2023/08/22 12:06:12;;;;;;;;;;;;;;;23.71;57.31;102022.59;5063407;28;19935;-45
2023/08/22 12:08:38;;;;;;;;;;;;;;;23.72;57.18;102022.41;5060566;28;19919;-45
2023/08/22 12:11:03;;;;;;;;;;;;;;;23.70;57.03;102021.72;5096114;28;19920;-45
2023/08/22 12:13:29;;;;;;;;;;;;;;;23.71;56.76;102023.44;5095793;28;19917;-44
2023/08/22 12:15:54;;;;;;;;;;;;;;;23.71;56.72;102022.59;5063684;28;19943;-45
2023/08/22 12:18:24;;;;;;;;;;;;;;;23.70;56.58;102019.00;5063138;28;19980;-46
2023/08/22 12:20:49;;;;;;;;;;;;;;;23.72;56.24;102027.00;5095426;28;19921;-44
2023/08/22 12:23:14;;;;;;;;;;;;;;;23.72;56.22;102027.00;5063330;28;19967;-43
2023/08/22 12:25:40;;;;;;;;;;;;;;;23.72;56.12;102024.28;5063294;28;19917;-47
2023/08/22 12:28:06;;;;;;;;;;;;;;;23.71;55.67;102020.72;5063413;28;20325;-45
2023/08/22 12:30:33;;;;;;;;;;;;;;;23.72;55.57;102029.72;5063060;28;19920;-45